sensor_id;sensor_type;location;lat;lon;timestamp;pressure;altitude;pressure_sealevel;temperature;humidity
72612;BME280;60655;52.182;4.474;2022-07-18T00:01:42;102492.00;;;19.16;66.53
72612;BME280;60655;52.182;4.474;2022-07-18T00:10:03;102468.22;;;19.13;66.01
72612;BME280;60655;52.182;4.474;2022-07-18T00:19:08;102480.75;;;19.19;65.78
72612;BME280;60655;52.182;4.474;2022-07-18T00:21:57;102476.31;;;19.13;65.67
72612;BME280;60655;52.182;4.474;2022-07-18T00:28:20;102448.66;;;19.06;64.76
72612;BME280;60655;52.182;4.474;2022-07-18T00:34:23;102468.25;;;19.25;64.25
72612;BME280;60655;52.182;4.474;2022-07-18T00:46:12;102459.44;;;19.17;63.59
72612;BME280;60655;52.182;4.474;2022-07-18T00:58:54;102464.66;;;18.77;65.10
72612;BME280;60655;52.182;4.474;2022-07-18T01:07:53;102455.75;;;18.77;65.09
72612;BME280;60655;52.182;4.474;2022-07-18T01:10:46;102455.19;;;18.75;65.32
72612;BME280;60655;52.182;4.474;2022-07-18T01:14:15;102452.81;;;18.78;64.85
72612;BME280;60655;52.182;4.474;2022-07-18T01:25:54;102457.75;;;18.51;65.70
72612;BME280;60655;52.182;4.474;2022-07-18T01:28:48;102446.97;;;18.40;65.96
72612;BME280;60655;52.182;4.474;2022-07-18T01:32:04;102450.72;;;18.50;65.66
72612;BME280;60655;52.182;4.474;2022-07-18T01:35:00;102451.31;;;18.41;66.01
72612;BME280;60655;52.182;4.474;2022-07-18T01:37:51;102432.69;;;18.39;65.64
72612;BME280;60655;52.182;4.474;2022-07-18T01:56:11;102435.28;;;18.76;62.72
72612;BME280;60655;52.182;4.474;2022-07-18T01:58:53;102437.72;;;18.77;62.42
72612;BME280;60655;52.182;4.474;2022-07-18T02:01:41;102432.41;;;18.59;63.06
72612;BME280;60655;52.182;4.474;2022-07-18T02:06:38;102424.16;;;18.72;62.13
72612;BME280;60655;52.182;4.474;2022-07-18T02:12:10;102418.06;;;18.88;60.82
72612;BME280;60655;52.182;4.474;2022-07-18T02:18:03;102411.41;;;18.91;60.10
72612;BME280;60655;52.182;4.474;2022-07-18T02:23:28;102405.78;;;18.93;60.48
72612;BME280;60655;52.182;4.474;2022-07-18T02:28:50;102400.75;;;18.73;61.02
72612;BME280;60655;52.182;4.474;2022-07-18T02:31:58;102390.78;;;18.85;59.51
72612;BME280;60655;52.182;4.474;2022-07-18T02:34:39;102398.19;;;18.89;59.06
72612;BME280;60655;52.182;4.474;2022-07-18T02:40:26;102401.81;;;18.95;58.40
72612;BME280;60655;52.182;4.474;2022-07-18T02:43:36;102399.47;;;18.99;58.68
72612;BME280;60655;52.182;4.474;2022-07-18T02:46:37;102397.38;;;19.01;57.96
72612;BME280;60655;52.182;4.474;2022-07-18T02:55:44;102396.66;;;18.70;60.39
72612;BME280;60655;52.182;4.474;2022-07-18T02:59:01;102389.84;;;18.68;60.51
72612;BME280;60655;52.182;4.474;2022-07-18T03:02:09;102389.97;;;18.73;59.49
72612;BME280;60655;52.182;4.474;2022-07-18T03:23:03;102336.81;;;18.80;58.25
72612;BME280;60655;52.182;4.474;2022-07-18T03:25:57;102356.13;;;18.88;57.57
72612;BME280;60655;52.182;4.474;2022-07-18T03:29:10;102359.06;;;18.87;57.97
72612;BME280;60655;52.182;4.474;2022-07-18T03:40:46;102347.59;;;18.92;56.66
72612;BME280;60655;52.182;4.474;2022-07-18T03:46:50;102340.56;;;18.79;57.96
72612;BME280;60655;52.182;4.474;2022-07-18T04:02:17;102328.41;;;18.88;57.06
72612;BME280;60655;52.182;4.474;2022-07-18T04:14:08;102323.94;;;18.82;56.75
72612;BME280;60655;52.182;4.474;2022-07-18T04:17:12;102333.44;;;18.84;56.50
72612;BME280;60655;52.182;4.474;2022-07-18T04:29:24;102318.19;;;18.78;56.53
72612;BME280;60655;52.182;4.474;2022-07-18T04:35:23;102332.97;;;18.87;56.51
72612;BME280;60655;52.182;4.474;2022-07-18T04:41:15;102340.56;;;18.91;56.06
72612;BME280;60655;52.182;4.474;2022-07-18T04:44:26;102331.66;;;18.90;56.16
72612;BME280;60655;52.182;4.474;2022-07-18T04:49:44;102335.19;;;18.91;55.81
72612;BME280;60655;52.182;4.474;2022-07-18T04:55:19;102337.53;;;18.99;56.19
72612;BME280;60655;52.182;4.474;2022-07-18T04:58:08;102339.75;;;19.02;56.81
72612;BME280;60655;52.182;4.474;2022-07-18T05:04:04;102344.66;;;19.16;55.44
72612;BME280;60655;52.182;4.474;2022-07-18T05:07:07;102346.41;;;19.22;56.17
72612;BME280;60655;52.182;4.474;2022-07-18T05:16:35;102340.31;;;19.27;56.27
72612;BME280;60655;52.182;4.474;2022-07-18T05:19:58;102333.03;;;19.28;55.50
72612;BME280;60655;52.182;4.474;2022-07-18T05:40:23;102322.91;;;19.46;55.23
72612;BME280;60655;52.182;4.474;2022-07-18T05:43:04;102314.25;;;19.56;54.27
72612;BME280;60655;52.182;4.474;2022-07-18T05:46:05;102313.38;;;19.67;54.61
72612;BME280;60655;52.182;4.474;2022-07-18T05:49:00;102307.13;;;19.78;54.33
72612;BME280;60655;52.182;4.474;2022-07-18T06:07:03;102312.44;;;20.52;51.59
72612;BME280;60655;52.182;4.474;2022-07-18T06:09:51;102315.63;;;20.66;52.00
72612;BME280;60655;52.182;4.474;2022-07-18T06:13:05;102306.88;;;20.75;51.45
72612;BME280;60655;52.182;4.474;2022-07-18T06:27:37;102300.91;;;20.95;51.43
72612;BME280;60655;52.182;4.474;2022-07-18T06:36:40;102291.13;;;21.11;51.08
72612;BME280;60655;52.182;4.474;2022-07-18T06:42:51;102299.94;;;21.45;50.51
72612;BME280;60655;52.182;4.474;2022-07-18T06:48:51;102290.94;;;21.61;49.55
72612;BME280;60655;52.182;4.474;2022-07-18T06:51:56;102291.78;;;21.67;49.94
72612;BME280;60655;52.182;4.474;2022-07-18T06:54:05;102280.94;;;21.62;50.14
72612;BME280;60655;52.182;4.474;2022-07-18T06:59:41;102274.16;;;21.59;49.74
72612;BME280;60655;52.182;4.474;2022-07-18T07:01:53;102281.53;;;21.69;49.74
72612;BME280;60655;52.182;4.474;2022-07-18T07:07:41;102272.50;;;21.85;49.31
72612;BME280;60655;52.182;4.474;2022-07-18T07:16:06;102268.97;;;22.11;48.77
72612;BME280;60655;52.182;4.474;2022-07-18T07:18:27;102278.94;;;22.38;48.65
72612;BME280;60655;52.182;4.474;2022-07-18T07:20:32;102275.75;;;22.46;48.56
72612;BME280;60655;52.182;4.474;2022-07-18T07:22:47;102270.59;;;22.44;48.19
72612;BME280;60655;52.182;4.474;2022-07-18T07:24:49;102280.59;;;22.44;48.13
72612;BME280;60655;52.182;4.474;2022-07-18T07:26:52;102269.25;;;22.47;47.99
72612;BME280;60655;52.182;4.474;2022-07-18T07:29:05;102269.63;;;22.66;48.25
72612;BME280;60655;52.182;4.474;2022-07-18T07:31:15;102268.81;;;22.65;47.73
72612;BME280;60655;52.182;4.474;2022-07-18T07:33:29;102279.16;;;22.73;47.44
72612;BME280;60655;52.182;4.474;2022-07-18T07:35:53;102276.94;;;22.65;46.60
72612;BME280;60655;52.182;4.474;2022-07-18T07:37:56;102298.44;;;22.77;46.57
72612;BME280;60655;52.182;4.474;2022-07-18T07:40:37;102294.75;;;22.93;46.63
72612;BME280;60655;52.182;4.474;2022-07-18T07:43:10;102301.31;;;23.02;46.71
72612;BME280;60655;52.182;4.474;2022-07-18T07:45:50;102289.97;;;23.15;46.94
72612;BME280;60655;52.182;4.474;2022-07-18T07:47:54;102297.34;;;23.30;47.10
72612;BME280;60655;52.182;4.474;2022-07-18T07:49:56;102296.00;;;23.33;46.68
72612;BME280;60655;52.182;4.474;2022-07-18T07:51:58;102287.06;;;23.42;46.74
72612;BME280;60655;52.182;4.474;2022-07-18T07:54:19;102285.47;;;23.51;45.23
72612;BME280;60655;52.182;4.474;2022-07-18T07:56:36;102283.63;;;23.57;45.10
72612;BME280;60655;52.182;4.474;2022-07-18T07:59:05;102273.59;;;23.58;45.26
72612;BME280;60655;52.182;4.474;2022-07-18T08:01:28;102281.75;;;23.63;45.00
72612;BME280;60655;52.182;4.474;2022-07-18T08:03:29;102282.28;;;23.70;44.63
72612;BME280;60655;52.182;4.474;2022-07-18T08:05:54;102282.00;;;23.71;43.74
72612;BME280;60655;52.182;4.474;2022-07-18T08:08:24;102274.69;;;23.77;43.95
72612;BME280;60655;52.182;4.474;2022-07-18T08:10:42;102272.56;;;23.89;43.48
72612;BME280;60655;52.182;4.474;2022-07-18T08:12:43;102277.97;;;23.99;43.09
72612;BME280;60655;52.182;4.474;2022-07-18T08:15:16;102268.75;;;24.20;42.33
72612;BME280;60655;52.182;4.474;2022-07-18T08:17:40;102257.34;;;24.03;42.03
72612;BME280;60655;52.182;4.474;2022-07-18T08:19:57;102273.09;;;24.21;42.38
72612;BME280;60655;52.182;4.474;2022-07-18T08:25:33;102270.66;;;24.30;39.95
72612;BME280;60655;52.182;4.474;2022-07-18T08:28:36;102275.50;;;24.64;40.82
72612;BME280;60655;52.182;4.474;2022-07-18T08:31:12;102261.63;;;24.75;39.35
72612;BME280;60655;52.182;4.474;2022-07-18T08:33:15;102261.31;;;24.82;39.88
72612;BME280;60655;52.182;4.474;2022-07-18T08:38:31;102271.06;;;25.03;39.85
72612;BME280;60655;52.182;4.474;2022-07-18T08:40:58;102266.16;;;25.05;38.34
72612;BME280;60655;52.182;4.474;2022-07-18T08:42:59;102267.72;;;25.16;38.53
72612;BME280;60655;52.182;4.474;2022-07-18T08:50:51;102251.72;;;25.10;38.64
72612;BME280;60655;52.182;4.474;2022-07-18T08:53:22;102261.41;;;25.31;38.29
72612;BME280;60655;52.182;4.474;2022-07-18T08:55:44;102259.75;;;25.35;37.39
72612;BME280;60655;52.182;4.474;2022-07-18T08:58:16;102268.44;;;25.37;38.22
72612;BME280;60655;52.182;4.474;2022-07-18T09:03:27;102268.47;;;25.76;37.12
72612;BME280;60655;52.182;4.474;2022-07-18T09:05:40;102263.25;;;25.85;36.76
72612;BME280;60655;52.182;4.474;2022-07-18T09:08:29;102263.50;;;25.88;36.88
72612;BME280;60655;52.182;4.474;2022-07-18T09:11:01;102256.19;;;25.84;36.15
72612;BME280;60655;52.182;4.474;2022-07-18T09:13:22;102258.03;;;25.94;36.57
72612;BME280;60655;52.182;4.474;2022-07-18T09:16:02;102255.41;;;26.12;36.90
72612;BME280;60655;52.182;4.474;2022-07-18T09:18:35;102253.59;;;26.32;36.60
72612;BME280;60655;52.182;4.474;2022-07-18T09:21:01;102253.03;;;26.30;36.49
72612;BME280;60655;52.182;4.474;2022-07-18T09:24:04;102257.91;;;26.38;35.40
72612;BME280;60655;52.182;4.474;2022-07-18T09:26:48;102250.41;;;26.24;35.33
72612;BME280;60655;52.182;4.474;2022-07-18T09:31:57;102239.66;;;26.04;35.27
72612;BME280;60655;52.182;4.474;2022-07-18T09:34:11;102247.97;;;26.23;34.07
72612;BME280;60655;52.182;4.474;2022-07-18T09:36:24;102236.03;;;26.14;34.10
72612;BME280;60655;52.182;4.474;2022-07-18T09:38:46;102245.00;;;26.48;33.85
72612;BME280;60655;52.182;4.474;2022-07-18T09:40:49;102241.19;;;26.49;34.76
72612;BME280;60655;52.182;4.474;2022-07-18T09:43:15;102238.44;;;26.49;34.33
72612;BME280;60655;52.182;4.474;2022-07-18T09:48:40;102225.97;;;26.67;33.94
72612;BME280;60655;52.182;4.474;2022-07-18T09:51:29;102226.44;;;26.74;33.74
72612;BME280;60655;52.182;4.474;2022-07-18T09:54:05;102231.84;;;26.79;33.64
72612;BME280;60655;52.182;4.474;2022-07-18T09:57:23;102236.25;;;26.75;32.68
72612;BME280;60655;52.182;4.474;2022-07-18T09:59:27;102227.25;;;26.99;31.36
72612;BME280;60655;52.182;4.474;2022-07-18T10:01:53;102226.47;;;26.93;30.74
72612;BME280;60655;52.182;4.474;2022-07-18T10:04:00;102224.53;;;26.99;30.86
72612;BME280;60655;52.182;4.474;2022-07-18T10:06:24;102220.41;;;27.01;30.52
72612;BME280;60655;52.182;4.474;2022-07-18T10:11:42;102220.28;;;27.11;30.39
72612;BME280;60655;52.182;4.474;2022-07-18T10:16:50;102229.03;;;27.08;31.10
72612;BME280;60655;52.182;4.474;2022-07-18T10:18:51;102219.34;;;26.97;27.80
72612;BME280;60655;52.182;4.474;2022-07-18T10:21:02;102232.28;;;27.10;27.69
72612;BME280;60655;52.182;4.474;2022-07-18T10:26:13;102228.59;;;27.57;29.09
72612;BME280;60655;52.182;4.474;2022-07-18T10:28:21;102230.09;;;27.69;29.86
72612;BME280;60655;52.182;4.474;2022-07-18T10:33:46;102213.28;;;28.08;30.14
72612;BME280;60655;52.182;4.474;2022-07-18T10:36:02;102230.31;;;28.18;30.09
72612;BME280;60655;52.182;4.474;2022-07-18T10:44:33;102224.44;;;28.11;29.91
72612;BME280;60655;52.182;4.474;2022-07-18T10:51:48;102222.59;;;28.53;29.14
72612;BME280;60655;52.182;4.474;2022-07-18T10:54:25;102218.31;;;28.47;28.83
72612;BME280;60655;52.182;4.474;2022-07-18T10:58:39;102209.00;;;28.75;25.93
72612;BME280;60655;52.182;4.474;2022-07-18T11:00:54;102212.47;;;28.81;26.43
72612;BME280;60655;52.182;4.474;2022-07-18T11:03:22;102216.91;;;28.90;27.51
72612;BME280;60655;52.182;4.474;2022-07-18T11:06:03;102217.72;;;28.91;28.40
72612;BME280;60655;52.182;4.474;2022-07-18T11:08:40;102210.25;;;28.83;29.12
72612;BME280;60655;52.182;4.474;2022-07-18T11:11:09;102214.47;;;28.89;28.38
72612;BME280;60655;52.182;4.474;2022-07-18T11:16:26;102213.66;;;28.88;28.84
72612;BME280;60655;52.182;4.474;2022-07-18T11:20:42;102189.72;;;29.08;28.75
72612;BME280;60655;52.182;4.474;2022-07-18T11:25:47;102194.59;;;29.11;27.78
72612;BME280;60655;52.182;4.474;2022-07-18T11:34:48;102190.03;;;29.42;27.48
72612;BME280;60655;52.182;4.474;2022-07-18T11:41:07;102183.75;;;29.28;28.09
72612;BME280;60655;52.182;4.474;2022-07-18T11:43:18;102184.06;;;29.40;28.13
72612;BME280;60655;52.182;4.474;2022-07-18T11:46:17;102181.91;;;29.37;27.17
72612;BME280;60655;52.182;4.474;2022-07-18T11:51:20;102172.88;;;29.37;28.10
72612;BME280;60655;52.182;4.474;2022-07-18T11:53:23;102180.44;;;29.53;28.12
72612;BME280;60655;52.182;4.474;2022-07-18T11:55:39;102183.06;;;29.59;28.03
72612;BME280;60655;52.182;4.474;2022-07-18T11:57:44;102174.66;;;29.55;28.29
72612;BME280;60655;52.182;4.474;2022-07-18T11:59:49;102171.59;;;29.56;28.04
72612;BME280;60655;52.182;4.474;2022-07-18T12:04:48;102149.69;;;29.56;28.02
72612;BME280;60655;52.182;4.474;2022-07-18T12:10:16;102160.63;;;29.79;27.90
72612;BME280;60655;52.182;4.474;2022-07-18T12:12:37;102168.72;;;29.84;28.72
72612;BME280;60655;52.182;4.474;2022-07-18T12:15:37;102164.16;;;30.02;26.74
72612;BME280;60655;52.182;4.474;2022-07-18T12:18:31;102168.53;;;30.11;26.87
72612;BME280;60655;52.182;4.474;2022-07-18T12:21:05;102157.81;;;29.93;26.28
72612;BME280;60655;52.182;4.474;2022-07-18T12:38:41;102158.06;;;29.82;26.50
72612;BME280;60655;52.182;4.474;2022-07-18T12:41:31;102158.19;;;29.77;28.01
72612;BME280;60655;52.182;4.474;2022-07-18T12:43:38;102165.28;;;30.01;26.54
72612;BME280;60655;52.182;4.474;2022-07-18T12:46:28;102162.06;;;29.99;26.47
72612;BME280;60655;52.182;4.474;2022-07-18T12:49:10;102155.13;;;30.01;25.89
72612;BME280;60655;52.182;4.474;2022-07-18T12:51:28;102143.88;;;30.11;24.78
72612;BME280;60655;52.182;4.474;2022-07-18T12:54:13;102148.03;;;30.00;25.24
72612;BME280;60655;52.182;4.474;2022-07-18T13:01:45;102141.28;;;30.06;25.40
72612;BME280;60655;52.182;4.474;2022-07-18T13:04:19;102139.81;;;30.00;24.96
72612;BME280;60655;52.182;4.474;2022-07-18T13:06:59;102138.81;;;29.96;25.04
72612;BME280;60655;52.182;4.474;2022-07-18T13:09:54;102136.47;;;30.12;25.03
72612;BME280;60655;52.182;4.474;2022-07-18T13:13:04;102124.28;;;30.27;24.09
72612;BME280;60655;52.182;4.474;2022-07-18T13:15:46;102134.56;;;30.21;23.56
72612;BME280;60655;52.182;4.474;2022-07-18T13:18:28;102103.25;;;29.74;24.10
72612;BME280;60655;52.182;4.474;2022-07-18T13:20:40;102127.28;;;30.16;24.08
72612;BME280;60655;52.182;4.474;2022-07-18T13:22:43;102119.06;;;30.16;24.11
72612;BME280;60655;52.182;4.474;2022-07-18T13:25:13;102126.75;;;30.06;24.33
72612;BME280;60655;52.182;4.474;2022-07-18T13:27:29;102114.41;;;30.17;25.13
72612;BME280;60655;52.182;4.474;2022-07-18T13:30:08;102122.16;;;30.23;24.06
72612;BME280;60655;52.182;4.474;2022-07-18T13:32:39;102114.91;;;30.28;23.74
72612;BME280;60655;52.182;4.474;2022-07-18T13:35:01;102107.34;;;30.33;24.19
72612;BME280;60655;52.182;4.474;2022-07-18T13:37:03;102106.88;;;30.40;24.97
72612;BME280;60655;52.182;4.474;2022-07-18T13:39:12;102108.16;;;30.42;25.50
72612;BME280;60655;52.182;4.474;2022-07-18T13:41:14;102108.88;;;30.57;24.88
72612;BME280;60655;52.182;4.474;2022-07-18T13:43:43;102114.03;;;30.58;24.85
72612;BME280;60655;52.182;4.474;2022-07-18T13:46:22;102110.16;;;30.68;24.84
72612;BME280;60655;52.182;4.474;2022-07-18T13:48:29;102097.44;;;30.72;25.10
72612;BME280;60655;52.182;4.474;2022-07-18T13:50:58;102093.25;;;30.83;25.02
72612;BME280;60655;52.182;4.474;2022-07-18T13:53:44;102109.53;;;30.71;25.28
72612;BME280;60655;52.182;4.474;2022-07-18T13:56:26;102108.41;;;30.98;24.70
72612;BME280;60655;52.182;4.474;2022-07-18T13:59:07;102101.94;;;31.02;24.33
72612;BME280;60655;52.182;4.474;2022-07-18T14:01:31;102100.81;;;31.03;24.94
72612;BME280;60655;52.182;4.474;2022-07-18T14:04:37;102105.16;;;30.96;24.47
72612;BME280;60655;52.182;4.474;2022-07-18T14:07:22;102103.88;;;31.10;24.25
72612;BME280;60655;52.182;4.474;2022-07-18T14:10:32;102080.31;;;31.01;24.92
72612;BME280;60655;52.182;4.474;2022-07-18T14:16:13;102100.66;;;31.34;24.60
72612;BME280;60655;52.182;4.474;2022-07-18T14:18:33;102105.66;;;31.32;24.27
72612;BME280;60655;52.182;4.474;2022-07-18T14:20:45;102091.94;;;31.23;23.95
72612;BME280;60655;52.182;4.474;2022-07-18T14:22:56;102077.44;;;31.14;24.54
72612;BME280;60655;52.182;4.474;2022-07-18T14:28:15;102094.53;;;31.11;24.47
72612;BME280;60655;52.182;4.474;2022-07-18T14:31:29;102095.53;;;31.15;24.10
72612;BME280;60655;52.182;4.474;2022-07-18T14:34:25;102089.72;;;31.17;23.94
72612;BME280;60655;52.182;4.474;2022-07-18T14:37:39;102097.63;;;31.18;23.76
72612;BME280;60655;52.182;4.474;2022-07-18T14:39:42;102088.88;;;30.82;23.51
72612;BME280;60655;52.182;4.474;2022-07-18T14:42:08;102086.44;;;30.72;23.66
72612;BME280;60655;52.182;4.474;2022-07-18T14:44:36;102080.34;;;30.83;23.39
72612;BME280;60655;52.182;4.474;2022-07-18T14:52:17;102079.19;;;30.67;23.08
72612;BME280;60655;52.182;4.474;2022-07-18T14:55:26;102089.22;;;30.80;22.95
72612;BME280;60655;52.182;4.474;2022-07-18T14:58:19;102081.44;;;30.57;23.05
72612;BME280;60655;52.182;4.474;2022-07-18T15:00:24;102084.28;;;30.43;22.66
72612;BME280;60655;52.182;4.474;2022-07-18T15:02:25;102075.16;;;30.56;21.86
72612;BME280;60655;52.182;4.474;2022-07-18T15:04:28;102073.97;;;30.48;23.17
72612;BME280;60655;52.182;4.474;2022-07-18T15:06:47;102073.97;;;30.48;22.56
72612;BME280;60655;52.182;4.474;2022-07-18T15:09:20;102075.91;;;30.48;22.07
72612;BME280;60655;52.182;4.474;2022-07-18T15:12:00;102071.91;;;30.54;21.16
72612;BME280;60655;52.182;4.474;2022-07-18T15:14:08;102069.31;;;30.49;21.47
72612;BME280;60655;52.182;4.474;2022-07-18T15:16:51;102070.56;;;30.34;21.81
72612;BME280;60655;52.182;4.474;2022-07-18T15:19:12;102064.75;;;30.36;21.96
72612;BME280;60655;52.182;4.474;2022-07-18T15:21:42;102058.97;;;30.29;21.83
72612;BME280;60655;52.182;4.474;2022-07-18T15:24:11;102052.84;;;30.32;20.91
72612;BME280;60655;52.182;4.474;2022-07-18T15:26:23;102065.72;;;30.22;22.23
72612;BME280;60655;52.182;4.474;2022-07-18T15:28:28;102064.75;;;30.27;21.05
72612;BME280;60655;52.182;4.474;2022-07-18T15:30:34;102059.09;;;30.32;21.43
72612;BME280;60655;52.182;4.474;2022-07-18T15:32:53;102048.78;;;30.38;22.35
72612;BME280;60655;52.182;4.474;2022-07-18T15:35:25;102047.19;;;30.45;22.37
72612;BME280;60655;52.182;4.474;2022-07-18T15:37:37;102050.97;;;30.58;22.40
72612;BME280;60655;52.182;4.474;2022-07-18T15:39:58;102048.50;;;30.48;21.75
72612;BME280;60655;52.182;4.474;2022-07-18T15:42:00;102041.06;;;30.48;22.36
72612;BME280;60655;52.182;4.474;2022-07-18T15:44:25;102042.34;;;30.42;22.40
72612;BME280;60655;52.182;4.474;2022-07-18T15:52:15;102036.53;;;30.35;22.18
72612;BME280;60655;52.182;4.474;2022-07-18T15:56:53;102037.50;;;30.22;23.11
72612;BME280;60655;52.182;4.474;2022-07-18T16:02:20;102028.44;;;30.13;23.43
72612;BME280;60655;52.182;4.474;2022-07-18T16:07:44;102022.00;;;30.17;23.53
72612;BME280;60655;52.182;4.474;2022-07-18T16:09:46;102020.69;;;30.15;23.13
72612;BME280;60655;52.182;4.474;2022-07-18T16:11:52;102027.00;;;30.15;23.76
72612;BME280;60655;52.182;4.474;2022-07-18T16:13:54;102023.72;;;29.96;24.31
72612;BME280;60655;52.182;4.474;2022-07-18T16:15:57;102026.75;;;29.95;23.36
72612;BME280;60655;52.182;4.474;2022-07-18T16:18:00;102023.22;;;29.94;24.40
72612;BME280;60655;52.182;4.474;2022-07-18T16:20:05;102017.09;;;29.97;24.37
72612;BME280;60655;52.182;4.474;2022-07-18T16:22:08;102019.84;;;29.97;24.69
72612;BME280;60655;52.182;4.474;2022-07-18T16:24:33;102014.19;;;29.94;24.96
72612;BME280;60655;52.182;4.474;2022-07-18T16:26:35;102006.09;;;29.88;24.57
72612;BME280;60655;52.182;4.474;2022-07-18T16:28:43;102005.53;;;30.00;25.24
72612;BME280;60655;52.182;4.474;2022-07-18T16:30:48;102011.63;;;29.97;24.88
72612;BME280;60655;52.182;4.474;2022-07-18T16:32:50;102012.25;;;29.94;25.29
72612;BME280;60655;52.182;4.474;2022-07-18T16:34:51;102006.88;;;29.80;24.48
72612;BME280;60655;52.182;4.474;2022-07-18T16:36:54;102007.06;;;29.84;24.97
72612;BME280;60655;52.182;4.474;2022-07-18T16:39:08;102006.41;;;29.87;24.87
72612;BME280;60655;52.182;4.474;2022-07-18T16:41:11;102002.88;;;29.86;25.59
72612;BME280;60655;52.182;4.474;2022-07-18T16:43:14;101994.34;;;29.88;24.38
72612;BME280;60655;52.182;4.474;2022-07-18T16:45:38;101979.00;;;29.78;25.13
72612;BME280;60655;52.182;4.474;2022-07-18T16:47:45;101991.28;;;29.89;24.96
72612;BME280;60655;52.182;4.474;2022-07-18T16:50:07;101994.84;;;29.90;25.88
72612;BME280;60655;52.182;4.474;2022-07-18T16:52:09;101986.63;;;29.90;24.85
72612;BME280;60655;52.182;4.474;2022-07-18T16:54:10;101982.88;;;29.86;25.17
72612;BME280;60655;52.182;4.474;2022-07-18T16:56:24;101971.75;;;29.82;25.73
72612;BME280;60655;52.182;4.474;2022-07-18T16:58:59;101979.16;;;29.82;25.78
72612;BME280;60655;52.182;4.474;2022-07-18T17:01:03;101980.16;;;29.86;25.17
72612;BME280;60655;52.182;4.474;2022-07-18T17:03:23;101974.34;;;29.87;25.20
72612;BME280;60655;52.182;4.474;2022-07-18T17:05:27;101963.84;;;29.81;24.58
72612;BME280;60655;52.182;4.474;2022-07-18T17:07:55;101980.28;;;29.81;25.20
72612;BME280;60655;52.182;4.474;2022-07-18T17:10:19;101976.25;;;29.78;25.55
72612;BME280;60655;52.182;4.474;2022-07-18T17:13:05;101969.03;;;29.74;25.56
72612;BME280;60655;52.182;4.474;2022-07-18T17:15:41;101963.34;;;29.62;25.80
72612;BME280;60655;52.182;4.474;2022-07-18T17:18:33;101963.53;;;29.74;25.64
72612;BME280;60655;52.182;4.474;2022-07-18T17:20:51;101966.09;;;29.70;25.71
72612;BME280;60655;52.182;4.474;2022-07-18T17:23:29;101948.81;;;29.61;25.60
72612;BME280;60655;52.182;4.474;2022-07-18T17:25:44;101960.28;;;29.63;25.85
72612;BME280;60655;52.182;4.474;2022-07-18T17:28:41;101937.84;;;29.44;26.53
72612;BME280;60655;52.182;4.474;2022-07-18T17:33:28;101946.19;;;29.47;26.72
72612;BME280;60655;52.182;4.474;2022-07-18T17:35:56;101960.25;;;29.54;26.23
72612;BME280;60655;52.182;4.474;2022-07-18T17:38:43;101954.59;;;29.51;25.95
72612;BME280;60655;52.182;4.474;2022-07-18T17:41:34;101956.81;;;29.49;25.92
72612;BME280;60655;52.182;4.474;2022-07-18T17:44:21;101929.72;;;29.39;26.36
72612;BME280;60655;52.182;4.474;2022-07-18T17:50:10;101935.50;;;29.37;26.24
72612;BME280;60655;52.182;4.474;2022-07-18T17:52:34;101941.38;;;29.44;26.19
72612;BME280;60655;52.182;4.474;2022-07-18T18:01:03;101945.69;;;29.45;26.00
72612;BME280;60655;52.182;4.474;2022-07-18T18:03:45;101938.56;;;29.36;26.96
72612;BME280;60655;52.182;4.474;2022-07-18T18:06:42;101945.34;;;29.38;26.87
72612;BME280;60655;52.182;4.474;2022-07-18T18:09:05;101947.28;;;29.38;26.42
72612;BME280;60655;52.182;4.474;2022-07-18T18:11:23;101942.44;;;29.35;26.87
72612;BME280;60655;52.182;4.474;2022-07-18T18:13:44;101946.78;;;29.36;26.76
72612;BME280;60655;52.182;4.474;2022-07-18T18:16:13;101951.44;;;29.35;27.50
72612;BME280;60655;52.182;4.474;2022-07-18T18:18:24;101948.72;;;29.35;27.43
72612;BME280;60655;52.182;4.474;2022-07-18T18:20:45;101947.72;;;29.31;27.68
72612;BME280;60655;52.182;4.474;2022-07-18T18:22:56;101944.50;;;29.29;28.04
72612;BME280;60655;52.182;4.474;2022-07-18T18:25:02;101947.91;;;29.35;28.36
72612;BME280;60655;52.182;4.474;2022-07-18T18:27:19;101948.03;;;29.30;28.31
72612;BME280;60655;52.182;4.474;2022-07-18T18:29:26;101945.28;;;29.30;28.07
72612;BME280;60655;52.182;4.474;2022-07-18T18:31:46;101945.28;;;29.30;28.67
72612;BME280;60655;52.182;4.474;2022-07-18T18:33:50;101936.09;;;29.26;28.32
72612;BME280;60655;52.182;4.474;2022-07-18T18:36:00;101938.69;;;29.31;28.40
72612;BME280;60655;52.182;4.474;2022-07-18T18:38:01;101935.16;;;29.30;28.71
72612;BME280;60655;52.182;4.474;2022-07-18T18:40:04;101942.75;;;29.33;28.16
72612;BME280;60655;52.182;4.474;2022-07-18T18:42:10;101939.06;;;29.38;28.10
72612;BME280;60655;52.182;4.474;2022-07-18T18:44:11;101939.28;;;29.41;27.96
72612;BME280;60655;52.182;4.474;2022-07-18T18:46:13;101948.78;;;29.44;28.46
72612;BME280;60655;52.182;4.474;2022-07-18T18:48:16;101952.66;;;29.43;28.15
72612;BME280;60655;52.182;4.474;2022-07-18T18:50:42;101932.00;;;29.45;28.44
72612;BME280;60655;52.182;4.474;2022-07-18T18:52:46;101938.41;;;29.72;28.82
72612;BME280;60655;52.182;4.474;2022-07-18T18:54:54;101934.28;;;30.17;28.52
72612;BME280;60655;52.182;4.474;2022-07-18T18:56:58;101935.72;;;30.75;27.76
72612;BME280;60655;52.182;4.474;2022-07-18T18:59:04;101937.81;;;31.34;26.44
72612;BME280;60655;52.182;4.474;2022-07-18T19:01:09;101934.19;;;31.80;25.98
72612;BME280;60655;52.182;4.474;2022-07-18T19:03:15;101929.72;;;31.96;26.25
72612;BME280;60655;52.182;4.474;2022-07-18T19:05:19;101926.63;;;32.18;26.13
72612;BME280;60655;52.182;4.474;2022-07-18T19:07:26;101927.41;;;32.28;25.38
72612;BME280;60655;52.182;4.474;2022-07-18T19:09:27;101929.84;;;32.20;25.45